createdAt,value
2022-07-25T00:00:02.654Z,81.18
2022-07-25T00:01:02.648Z,79.88
2022-07-25T00:02:02.713Z,79.98
2022-07-25T00:03:02.697Z,80.38
2022-07-25T00:04:03.030Z,79.48
2022-07-25T00:05:02.654Z,79.98
2022-07-25T00:06:02.607Z,79.38
2022-07-25T00:07:02.631Z,79.18
2022-07-25T00:08:02.577Z,79.18
2022-07-25T00:09:02.570Z,80.48
2022-07-25T00:10:02.563Z,79.88
2022-07-25T00:11:02.555Z,80.82
2022-07-25T00:12:02.543Z,79.02
2022-07-25T00:13:02.541Z,78.81
2022-07-25T00:14:02.694Z,78.58
2022-07-25T00:15:02.516Z,78.88
2022-07-25T00:16:02.629Z,78.58
2022-07-25T00:17:02.498Z,79.28
2022-07-25T00:18:02.534Z,78.98
2022-07-25T00:19:02.512Z,81.09
2022-07-25T00:20:02.472Z,79.18
2022-07-25T00:21:02.469Z,78.98
2022-07-25T00:22:02.449Z,79.68
2022-07-25T00:23:02.466Z,80.18
2022-07-25T00:24:02.672Z,80.08
2022-07-25T00:25:02.424Z,81.48
2022-07-25T00:26:02.421Z,80.58
2022-07-25T00:27:02.412Z,80.72
2022-07-25T00:28:02.427Z,80.12
2022-07-25T00:29:02.416Z,81.12
2022-07-25T00:30:02.383Z,81.93
2022-07-25T00:31:02.450Z,80.92
2022-07-25T00:32:02.360Z,81.93
2022-07-25T00:33:02.353Z,81.73
2022-07-25T00:34:02.514Z,81.12
2022-07-25T00:35:02.336Z,82.03
2022-07-25T00:36:02.342Z,81.12
2022-07-25T00:37:02.322Z,80.82
2022-07-25T00:38:02.300Z,79.82
2022-07-25T00:39:02.301Z,81.02
2022-07-25T00:40:02.297Z,80.88
2022-07-25T00:41:02.282Z,80.02
2022-07-25T00:42:02.268Z,80.02
2022-07-25T00:43:02.260Z,81.73
2022-07-25T00:44:02.463Z,80.82
2022-07-25T00:45:02.251Z,81.38
2022-07-25T00:46:02.273Z,80.62
2022-07-25T00:47:02.227Z,81.09
2022-07-25T00:48:02.211Z,80.22
2022-07-25T00:49:02.248Z,80.72
2022-07-25T00:50:02.202Z,79.92
2022-07-25T00:51:02.214Z,81.18
2022-07-25T00:52:02.195Z,81.93
2022-07-25T00:53:02.173Z,81.12
2022-07-25T00:54:02.318Z,80.22
2022-07-25T00:55:02.153Z,80.68
2022-07-25T00:56:02.169Z,80.92
2022-07-25T00:57:02.366Z,80.42
2022-07-25T00:58:02.121Z,79.72
2022-07-25T00:59:02.153Z,80.62
2022-07-25T01:00:02.103Z,80.92
2022-07-25T01:01:02.091Z,81.16
2022-07-25T01:02:03.684Z,81.02
2022-07-25T01:03:02.118Z,82.67
2022-07-25T01:04:02.214Z,80.86
2022-07-25T01:05:02.091Z,81.96
2022-07-25T01:06:02.045Z,82.37
2022-07-25T01:07:02.038Z,81.96
2022-07-25T01:08:02.056Z,81.16
2022-07-25T01:09:02.030Z,81.87
2022-07-25T01:10:02.115Z,81.36
2022-07-25T01:11:02.002Z,81.26
2022-07-25T01:12:01.993Z,80.52
2022-07-25T01:13:01.985Z,80.86
2022-07-25T01:14:02.124Z,80.56
2022-07-25T01:15:02.010Z,81.10
2022-07-25T01:16:02.031Z,82.70
2022-07-25T01:17:01.951Z,82.40
2022-07-25T01:18:01.933Z,83.51
2022-07-25T01:19:01.954Z,82.90
2022-07-25T01:20:01.942Z,84.01
2022-07-25T01:21:01.992Z,82.40
2022-07-25T01:22:01.898Z,83.51
2022-07-25T01:23:01.893Z,82.64
2022-07-25T01:24:02.009Z,83.75
2022-07-25T01:25:01.875Z,82.95
2022-07-25T01:26:01.862Z,82.14
2022-07-25T01:27:01.899Z,83.04
2022-07-25T01:28:01.843Z,82.24
2022-07-25T01:29:01.833Z,83.95
2022-07-25T01:30:01.825Z,82.90
2022-07-25T01:31:01.895Z,82.24
2022-07-25T01:32:01.809Z,83.45
2022-07-25T01:33:06.634Z,84.65
2022-07-25T01:34:01.799Z,82.84
2022-07-25T01:35:01.779Z,83.45
2022-07-25T01:36:01.764Z,83.55
2022-07-25T01:37:01.793Z,82.14
2022-07-25T01:38:01.748Z,82.34
2022-07-25T01:39:01.763Z,83.35
2022-07-25T01:40:01.735Z,82.34
2022-07-25T01:41:01.720Z,83.55
2022-07-25T01:42:01.714Z,82.64
2022-07-25T01:43:01.731Z,83.55
2022-07-25T01:44:01.691Z,82.98
2022-07-25T01:45:01.687Z,84.09
2022-07-25T01:46:01.704Z,83.79
2022-07-25T01:47:01.691Z,82.78
2022-07-25T01:48:01.656Z,82.18
2022-07-25T01:49:01.675Z,82.98
2022-07-25T01:50:01.638Z,82.78
2022-07-25T01:51:01.630Z,82.89
2022-07-25T01:52:01.635Z,82.78
2022-07-25T01:53:01.635Z,83.39
2022-07-25T01:54:01.624Z,84.05
2022-07-25T01:55:01.587Z,85.39
2022-07-25T01:56:02.826Z,84.09
2022-07-25T01:57:01.569Z,83.89
2022-07-25T01:58:01.624Z,83.99
2022-07-25T01:59:01.553Z,84.09
2022-07-25T02:00:01.544Z,84.29
2022-07-25T02:01:01.592Z,83.39
2022-07-25T02:02:01.649Z,83.49
2022-07-25T02:03:01.515Z,84.39
2022-07-25T02:04:01.635Z,83.49
2022-07-25T02:05:01.597Z,82.98
2022-07-25T02:06:01.489Z,83.09
2022-07-25T02:07:01.476Z,83.99
2022-07-25T02:08:01.464Z,83.39
2022-07-25T02:09:01.458Z,83.99
2022-07-25T02:10:01.476Z,83.49
2022-07-25T02:11:01.442Z,83.69
2022-07-25T02:12:01.455Z,83.49
2022-07-25T02:13:01.419Z,82.98
2022-07-25T02:14:01.412Z,82.28
2022-07-25T02:15:01.443Z,83.04
2022-07-25T02:16:01.428Z,82.04
2022-07-25T02:17:01.439Z,82.34
2022-07-25T02:18:01.381Z,82.95
2022-07-25T02:19:01.360Z,83.15
2022-07-25T02:20:01.366Z,83.35
2022-07-25T02:21:01.415Z,83.65
2022-07-25T02:22:01.342Z,82.95
2022-07-25T02:23:01.322Z,83.15
2022-07-25T02:24:01.316Z,81.94
2022-07-25T02:25:01.364Z,81.64
2022-07-25T02:26:01.292Z,82.14
2022-07-25T02:27:01.316Z,81.64
2022-07-25T02:28:01.291Z,82.95
2022-07-25T02:29:01.264Z,83.45
2022-07-25T02:30:01.259Z,82.64
2022-07-25T02:31:01.353Z,82.75
2022-07-25T02:32:01.304Z,82.75
2022-07-25T02:33:01.242Z,82.14
2022-07-25T02:34:01.219Z,82.08
2022-07-25T02:35:01.210Z,82.78
2022-07-25T02:36:01.200Z,83.04
2022-07-25T02:37:01.189Z,83.65
2022-07-25T02:38:01.215Z,83.55
2022-07-25T02:39:01.170Z,81.94
2022-07-25T02:40:01.160Z,82.28
2022-07-25T02:41:01.150Z,83.18
2022-07-25T02:42:01.225Z,83.29
2022-07-25T02:43:01.134Z,82.78
2022-07-25T02:44:01.120Z,82.48
2022-07-25T02:45:01.132Z,82.38
2022-07-25T02:46:01.153Z,81.68
2022-07-25T02:47:01.095Z,83.59
2022-07-25T02:48:01.088Z,82.98
2022-07-25T02:49:01.180Z,82.58
2022-07-25T02:50:01.069Z,83.09
2022-07-25T02:51:01.056Z,83.63
2022-07-25T02:52:01.043Z,84.29
2022-07-25T02:53:01.039Z,82.12
2022-07-25T02:54:01.102Z,83.09
2022-07-25T02:55:02.965Z,83.69
2022-07-25T02:56:01.013Z,83.09
2022-07-25T02:57:01.007Z,82.48
2022-07-25T02:58:00.991Z,83.09
2022-07-25T02:59:00.984Z,82.48
2022-07-25T03:00:00.980Z,82.18
2022-07-25T03:01:01.013Z,82.78
2022-07-25T03:02:00.956Z,81.34
2022-07-25T03:03:00.945Z,81.78
2022-07-25T03:04:00.992Z,81.48
2022-07-25T03:05:00.981Z,81.88
2022-07-25T03:06:00.917Z,81.98
2022-07-25T03:07:00.912Z,81.68
2022-07-25T03:08:00.890Z,82.28
2022-07-25T03:09:00.889Z,82.28
2022-07-25T03:10:00.878Z,81.78
2022-07-25T03:11:00.896Z,81.07
2022-07-25T03:12:00.853Z,81.98
2022-07-25T03:13:00.847Z,81.48
2022-07-25T03:14:00.839Z,80.68
2022-07-25T03:15:00.832Z,82.38
2022-07-25T03:16:00.875Z,81.98
2022-07-25T03:17:00.866Z,81.68
2022-07-25T03:18:00.814Z,81.68
2022-07-25T03:19:00.795Z,81.52
2022-07-25T03:20:00.777Z,81.48
2022-07-25T03:21:00.776Z,81.48
2022-07-25T03:22:00.758Z,81.98
2022-07-25T03:23:00.751Z,82.12
2022-07-25T03:24:00.739Z,82.92
2022-07-25T03:25:00.732Z,82.92
2022-07-25T03:26:00.767Z,82.82
2022-07-25T03:27:00.716Z,82.22
2022-07-25T03:28:00.704Z,82.42
2022-07-25T03:29:00.693Z,82.72
2022-07-25T03:30:00.682Z,82.36
2022-07-25T03:31:00.687Z,82.26
2022-07-25T03:32:00.804Z,81.96
2022-07-25T03:33:00.681Z,82.46
2022-07-25T03:34:00.652Z,83.23
2022-07-25T03:35:00.641Z,83.23
2022-07-25T03:36:00.623Z,82.22
2022-07-25T03:37:00.619Z,82.22
2022-07-25T03:38:00.616Z,80.91
2022-07-25T03:39:00.598Z,83.23
2022-07-25T03:40:00.584Z,81.41
2022-07-25T03:41:00.582Z,82.76
2022-07-25T03:42:00.595Z,82.66
2022-07-25T03:43:00.553Z,82.36
2022-07-25T03:44:00.550Z,82.46
2022-07-25T03:45:00.537Z,82.16
2022-07-25T03:46:00.708Z,81.05
2022-07-25T03:47:00.518Z,81.72
2022-07-25T03:48:00.511Z,81.82
2022-07-25T03:49:00.549Z,82.32
2022-07-25T03:50:00.493Z,83.23
2022-07-25T03:51:04.993Z,81.82
2022-07-25T03:52:00.499Z,82.42
2022-07-25T03:53:00.474Z,83.17
2022-07-25T03:54:00.449Z,82.97
2022-07-25T03:55:00.441Z,81.96
2022-07-25T03:56:00.435Z,83.47
2022-07-25T03:57:00.484Z,83.06
2022-07-25T03:58:00.411Z,83.06
2022-07-25T03:59:00.402Z,82.06
2022-07-25T04:00:00.393Z,82.76
2022-07-25T04:01:00.442Z,82.06
2022-07-25T04:02:00.415Z,83.67
2022-07-25T04:03:00.398Z,82.66
2022-07-25T04:04:00.365Z,82.32
2022-07-25T04:05:00.347Z,82.82
2022-07-25T04:06:00.333Z,82.97
2022-07-25T04:07:00.321Z,81.56
2022-07-25T04:08:00.313Z,82.16
2022-07-25T04:09:00.304Z,81.46
2022-07-25T04:10:00.296Z,82.86
2022-07-25T04:11:00.280Z,82.46
2022-07-25T04:12:00.290Z,83.76
2022-07-25T04:13:00.292Z,82.86
2022-07-25T04:14:00.253Z,83.17
2022-07-25T04:15:00.242Z,82.16
2022-07-25T04:16:00.233Z,81.76
2022-07-25T04:17:00.285Z,81.96
2022-07-25T04:18:00.265Z,83.57
2022-07-25T04:19:01.072Z,81.96
2022-07-25T04:20:00.248Z,82.16
2022-07-25T04:21:00.181Z,81.96
2022-07-25T04:22:00.176Z,81.85
2022-07-25T04:23:00.165Z,83.87
2022-07-25T04:24:00.184Z,81.96
2022-07-25T04:25:00.145Z,81.76
2022-07-25T04:26:00.135Z,82.86
2022-07-25T04:27:00.149Z,82.46
2022-07-25T04:28:00.119Z,82.26
2022-07-25T04:29:00.153Z,82.66
2022-07-25T04:30:00.148Z,83.26
2022-07-25T04:31:00.091Z,82.86
2022-07-25T04:32:00.168Z,83.67
2022-07-25T04:33:00.070Z,84.88
2022-07-25T04:34:00.116Z,82.46
2022-07-25T04:35:00.085Z,82.97
2022-07-25T04:36:00.040Z,82.26
2022-07-25T04:37:00.028Z,82.76
2022-07-25T04:38:00.026Z,83.17
2022-07-25T04:39:00.008Z,83.97
2022-07-25T04:39:59.999Z,82.16
2022-07-25T04:40:59.988Z,83.12
2022-07-25T04:41:59.977Z,82.46
2022-07-25T04:42:59.970Z,83.17
2022-07-25T04:43:59.955Z,82.56
2022-07-25T04:44:59.944Z,83.26
2022-07-25T04:46:00.043Z,83.83
2022-07-25T04:46:59.932Z,83.73
2022-07-25T04:47:59.919Z,83.17
2022-07-25T04:48:59.953Z,82.82
2022-07-25T04:49:59.913Z,83.33
2022-07-25T04:50:59.886Z,83.23
2022-07-25T04:51:59.881Z,83.03
2022-07-25T04:52:59.868Z,83.83
2022-07-25T04:53:59.860Z,83.12
2022-07-25T04:54:59.927Z,83.33
2022-07-25T04:55:59.837Z,83.23
2022-07-25T04:56:59.830Z,82.38
2022-07-25T04:57:59.821Z,82.28
2022-07-25T04:59:06.179Z,82.18
2022-07-25T04:59:59.821Z,83.39
2022-07-25T05:00:59.922Z,82.52
2022-07-25T05:01:59.837Z,82.58
2022-07-25T05:02:59.773Z,83.79
2022-07-25T05:03:59.764Z,83.09
2022-07-25T05:04:59.751Z,82.89
2022-07-25T05:05:59.799Z,83.59
2022-07-25T05:06:59.731Z,83.59
2022-07-25T05:07:59.739Z,84.29
2022-07-25T05:08:59.708Z,84.69
2022-07-25T05:09:59.723Z,83.59
2022-07-25T05:10:59.691Z,84.49
2022-07-25T05:11:59.719Z,84.69
2022-07-25T05:12:59.705Z,84.29
2022-07-25T05:13:59.668Z,84.39
2022-07-25T05:14:59.652Z,82.78
2022-07-25T05:15:59.696Z,84.49
2022-07-25T05:16:59.632Z,85.96
2022-07-25T05:17:59.667Z,86.16
2022-07-25T05:18:59.615Z,85.46
2022-07-25T05:19:59.630Z,84.15
2022-07-25T05:20:59.615Z,85.25
2022-07-25T05:21:59.587Z,84.15
2022-07-25T05:22:59.607Z,82.45
2022-07-25T05:23:59.587Z,82.95
2022-07-25T05:24:59.557Z,83.35
2022-07-25T05:25:59.553Z,82.95
2022-07-25T05:26:59.536Z,82.81
2022-07-25T05:27:59.570Z,83.45
2022-07-25T05:28:59.525Z,83.15
2022-07-25T05:29:59.512Z,82.75
2022-07-25T05:30:59.507Z,82.45
2022-07-25T05:31:59.516Z,83.41
2022-07-25T05:32:59.542Z,82.40
2022-07-25T05:33:59.473Z,84.55
2022-07-25T05:34:59.460Z,83.61
2022-07-25T05:35:59.453Z,83.71
2022-07-25T05:36:59.445Z,84.31
2022-07-25T05:37:59.436Z,83.41
2022-07-25T05:38:59.431Z,83.85
2022-07-25T05:39:59.434Z,83.81
2022-07-25T05:40:59.404Z,85.11
2022-07-25T05:41:59.400Z,84.41
2022-07-25T05:43:02.877Z,83.51
2022-07-25T05:43:59.377Z,84.11
2022-07-25T05:44:59.365Z,84.01
2022-07-25T05:45:59.359Z,84.11
2022-07-25T05:46:59.471Z,85.72
2022-07-25T05:47:59.338Z,83.61
2022-07-25T05:48:59.424Z,84.11
2022-07-25T05:49:59.324Z,83.71
2022-07-25T05:50:59.308Z,83.41
2022-07-25T05:51:59.329Z,85.92
2022-07-25T05:52:59.334Z,84.11
2022-07-25T05:53:59.285Z,83.31
2022-07-25T05:54:59.270Z,84.77
2022-07-25T05:55:59.335Z,83.77
2022-07-25T05:56:59.255Z,83.77
2022-07-25T05:57:59.247Z,85.17
2022-07-25T05:58:59.249Z,83.37
2022-07-25T05:59:59.227Z,82.87
2022-07-25T06:00:59.242Z,81.76
2022-07-25T06:01:59.387Z,85.47
2022-07-25T06:02:59.355Z,84.57
2022-07-25T06:03:59.216Z,84.67
2022-07-25T06:04:59.175Z,84.67
2022-07-25T06:05:59.171Z,84.67
2022-07-25T06:06:59.188Z,85.68
2022-07-25T06:07:59.179Z,85.47
2022-07-25T06:08:59.142Z,84.47
2022-07-25T06:09:59.134Z,84.37
2022-07-25T06:10:59.126Z,85.88
2022-07-25T06:12:01.066Z,85.78
2022-07-25T06:12:59.136Z,85.08
2022-07-25T06:13:59.133Z,87.38
2022-07-25T06:14:59.082Z,86.48
2022-07-25T06:15:59.173Z,85.97
2022-07-25T06:16:59.066Z,87.48
2022-07-25T06:17:59.066Z,85.68
2022-07-25T06:18:59.049Z,85.47
2022-07-25T06:19:59.069Z,85.44
2022-07-25T06:20:59.057Z,87.04
2022-07-25T06:21:59.025Z,87.04
2022-07-25T06:22:59.008Z,87.08
2022-07-25T06:23:59.004Z,86.84
2022-07-25T06:24:59.006Z,85.94
2022-07-25T06:25:59.022Z,87.14
2022-07-25T06:26:58.980Z,84.93
2022-07-25T06:27:58.966Z,85.74
2022-07-25T06:28:58.953Z,85.33
2022-07-25T06:29:58.948Z,86.04
2022-07-25T06:30:59.052Z,87.10
2022-07-25T06:31:58.985Z,86.24
2022-07-25T06:32:58.922Z,85.13
2022-07-25T06:33:58.910Z,87.44
2022-07-25T06:34:58.915Z,87.64
2022-07-25T06:35:58.896Z,87.10
2022-07-25T06:36:58.918Z,87.50
2022-07-25T06:37:58.878Z,86.50
2022-07-25T06:38:58.910Z,85.60
2022-07-25T06:39:58.853Z,83.79
2022-07-25T06:40:58.877Z,84.09
2022-07-25T06:41:58.837Z,85.39
2022-07-25T06:42:58.828Z,85.99
2022-07-25T06:43:58.824Z,83.99
2022-07-25T06:44:58.811Z,83.45
2022-07-25T06:45:58.841Z,84.65
2022-07-25T06:46:58.852Z,81.74
2022-07-25T06:47:58.819Z,84.45
2022-07-25T06:48:58.829Z,81.71
2022-07-25T06:49:58.766Z,83.65
2022-07-25T06:50:58.758Z,81.71
2022-07-25T06:51:58.787Z,84.21
2022-07-25T06:52:58.741Z,81.81
2022-07-25T06:53:58.733Z,81.30
2022-07-25T06:54:58.810Z,81.21
2022-07-25T06:55:58.714Z,81.87
2022-07-25T06:56:58.730Z,81.17
2022-07-25T06:57:58.702Z,81.77
2022-07-25T06:58:58.681Z,81.07
2022-07-25T06:59:58.677Z,80.93
2022-07-25T07:00:58.792Z,82.37
2022-07-25T07:01:58.666Z,81.37
2022-07-25T07:02:58.810Z,81.03
2022-07-25T07:03:58.640Z,80.53
2022-07-25T07:04:58.631Z,82.43
2022-07-25T07:05:58.659Z,83.27
2022-07-25T07:06:58.609Z,81.97
2022-07-25T07:07:58.632Z,82.47
2022-07-25T07:08:58.598Z,82.03
2022-07-25T07:09:58.592Z,84.13
2022-07-25T07:10:58.581Z,83.47
2022-07-25T07:11:58.610Z,82.37
2022-07-25T07:12:58.561Z,83.37
2022-07-25T07:13:58.557Z,83.47
2022-07-25T07:14:58.541Z,82.73
2022-07-25T07:15:58.576Z,83.97
2022-07-25T07:16:58.523Z,83.23
2022-07-25T07:17:58.528Z,85.23
2022-07-25T07:18:58.505Z,83.43
2022-07-25T07:19:58.504Z,83.93
2022-07-25T07:20:58.490Z,83.93
2022-07-25T07:21:58.487Z,83.93
2022-07-25T07:22:58.482Z,85.53
2022-07-25T07:23:58.481Z,85.33
2022-07-25T07:24:58.455Z,85.33
2022-07-25T07:25:58.606Z,84.53
2022-07-25T07:26:58.441Z,85.93
2022-07-25T07:27:58.735Z,85.53
2022-07-25T07:28:58.423Z,84.93
2022-07-25T07:29:58.416Z,85.39
2022-07-25T07:31:15.765Z,83.83
2022-07-25T07:31:58.534Z,83.09
2022-07-25T07:32:58.396Z,79.59
2022-07-25T07:33:58.380Z,76.95
2022-07-25T07:34:58.379Z,76.76
2022-07-25T07:35:58.367Z,77.72
2022-07-25T07:36:58.395Z,73.92
2022-07-25T07:37:58.346Z,73.32
2022-07-25T07:38:58.332Z,72.72
2022-07-25T07:39:58.340Z,71.22
2022-07-25T07:40:58.316Z,71.89
2022-07-25T07:41:58.334Z,71.99
2022-07-25T07:42:58.321Z,72.78
2022-07-25T07:43:58.295Z,72.09
2022-07-25T07:44:58.287Z,73.49
2022-07-25T07:45:58.279Z,73.49
2022-07-25T07:46:58.326Z,73.69
2022-07-25T07:47:58.264Z,73.28
2022-07-25T07:48:58.294Z,74.58
2022-07-25T07:49:58.249Z,74.88
2022-07-25T07:50:58.236Z,74.08
2022-07-25T07:51:58.265Z,72.19
2022-07-25T07:52:58.294Z,70.89
2022-07-25T07:53:58.220Z,73.49
2022-07-25T07:54:59.546Z,69.79
2022-07-25T07:55:58.202Z,71.86
2022-07-25T07:56:58.194Z,70.06
2022-07-25T07:57:58.196Z,70.36
2022-07-25T07:58:58.216Z,69.76
2022-07-25T07:59:58.159Z,70.32
2022-07-25T08:00:58.156Z,70.23
2022-07-25T08:01:58.174Z,70.09
2022-07-25T08:02:58.226Z,70.09
2022-07-25T08:03:58.150Z,69.59
2022-07-25T08:04:58.159Z,69.46
2022-07-25T08:05:58.113Z,67.27
2022-07-25T08:06:58.107Z,67.77
2022-07-25T08:07:58.097Z,68.37
2022-07-25T08:08:58.094Z,66.97
2022-07-25T08:09:58.078Z,66.83
2022-07-25T08:10:59.105Z,68.20
2022-07-25T08:11:58.074Z,67.00
2022-07-25T08:12:58.079Z,65.31
2022-07-25T08:13:58.047Z,64.22
2022-07-25T08:14:58.061Z,64.88
2022-07-25T08:15:58.174Z,64.78
2022-07-25T08:16:58.025Z,66.08
2022-07-25T08:17:58.026Z,66.77
2022-07-25T08:18:58.025Z,66.27
2022-07-25T08:20:14.452Z,63.98
2022-07-25T08:20:57.997Z,64.45
2022-07-25T08:21:58.040Z,66.05
2022-07-25T08:22:58.514Z,65.84
2022-07-25T08:23:57.966Z,65.94
2022-07-25T08:24:57.963Z,65.81
2022-07-25T08:25:58.003Z,66.31
2022-07-25T08:26:57.944Z,66.51
2022-07-25T08:27:57.938Z,65.81
2022-07-25T08:29:17.711Z,64.03
2022-07-25T08:29:57.933Z,64.72
2022-07-25T08:30:57.981Z,64.69
2022-07-25T08:31:57.933Z,63.20
2022-07-25T08:32:57.912Z,61.11
2022-07-25T08:33:57.892Z,62.18
2022-07-25T08:34:57.901Z,63.17
2022-07-25T08:35:57.874Z,61.88
2022-07-25T08:36:57.904Z,64.36
2022-07-25T08:37:57.882Z,65.55
2022-07-25T08:38:57.857Z,62.77
2022-07-25T08:39:57.851Z,65.65
2022-07-25T08:40:57.847Z,64.59
2022-07-25T08:41:57.857Z,64.56
2022-07-25T08:42:57.827Z,63.67
2022-07-25T08:43:57.820Z,63.86
2022-07-25T08:44:57.818Z,63.57
2022-07-25T08:45:57.865Z,64.16
2022-07-25T08:46:57.956Z,62.34
2022-07-25T08:47:57.801Z,62.41
2022-07-25T08:48:57.899Z,61.12
2022-07-25T08:50:02.339Z,62.58
2022-07-25T08:50:57.772Z,61.29
2022-07-25T08:51:57.765Z,61.32
2022-07-25T08:53:22.994Z,64.40
2022-07-25T08:53:57.751Z,60.00
2022-07-25T08:54:57.754Z,59.67
2022-07-25T08:55:57.733Z,59.67
2022-07-25T08:56:57.781Z,59.45
2022-07-25T08:57:57.731Z,60.05
2022-07-25T08:58:57.714Z,57.86
2022-07-25T08:59:57.710Z,59.65
2022-07-25T09:00:57.703Z,58.36
2022-07-25T09:01:57.770Z,58.98
2022-07-25T09:02:57.731Z,60.54
2022-07-25T09:03:57.709Z,60.96
2022-07-25T09:04:57.678Z,62.45
2022-07-25T09:05:57.668Z,58.46
2022-07-25T09:06:57.666Z,59.42
2022-07-25T09:07:57.658Z,57.74
2022-07-25T09:08:57.685Z,59.32
2022-07-25T09:09:57.653Z,57.81
2022-07-25T09:10:57.641Z,57.61
2022-07-25T09:11:57.672Z,58.60
2022-07-25T09:12:57.629Z,58.80
2022-07-25T09:13:57.618Z,60.48
2022-07-25T09:14:57.693Z,58.53
2022-07-25T09:15:57.732Z,56.13
2022-07-25T09:16:57.602Z,57.74
2022-07-25T09:17:57.594Z,58.30
2022-07-25T09:18:57.618Z,58.30
2022-07-25T09:19:57.581Z,57.81
2022-07-25T09:20:57.573Z,57.74
2022-07-25T09:21:57.593Z,58.43
2022-07-25T09:22:57.565Z,59.92
2022-07-25T09:23:57.554Z,58.83
2022-07-25T09:24:57.550Z,58.03
2022-07-25T09:25:57.578Z,59.62
2022-07-25T09:26:57.543Z,57.90
2022-07-25T09:27:57.528Z,60.41
2022-07-25T09:28:57.540Z,57.61
2022-07-25T09:29:57.519Z,58.33
2022-07-25T09:30:57.570Z,59.22
2022-07-25T09:31:57.565Z,59.32
2022-07-25T09:32:57.500Z,60.41
2022-07-25T09:33:57.502Z,58.92
2022-07-25T09:34:57.485Z,58.92
2022-07-25T09:35:57.487Z,58.03
2022-07-25T09:36:57.475Z,58.40
2022-07-25T09:37:57.496Z,58.83
2022-07-25T09:38:57.461Z,58.50
2022-07-25T09:39:57.464Z,58.50
2022-07-25T09:40:57.450Z,59.19
2022-07-25T09:41:57.463Z,58.80
2022-07-25T09:42:57.465Z,58.01
2022-07-25T09:43:57.427Z,57.81
2022-07-25T09:44:57.635Z,57.90
2022-07-25T09:45:57.461Z,59.59
2022-07-25T09:46:57.411Z,57.81
2022-07-25T09:47:57.443Z,57.61
2022-07-25T09:48:57.458Z,57.81
2022-07-25T09:49:57.394Z,56.62
2022-07-25T09:50:57.388Z,58.50
2022-07-25T09:51:57.381Z,56.62
2022-07-25T09:52:57.492Z,59.69
2022-07-25T09:53:57.368Z,58.30
2022-07-25T09:54:57.365Z,58.80
2022-07-25T09:55:57.355Z,56.92
2022-07-25T09:56:57.363Z,56.62
2022-07-25T09:57:57.342Z,56.72
2022-07-25T09:58:57.403Z,57.24
2022-07-25T09:59:57.327Z,56.35
2022-07-25T10:00:57.325Z,56.92
2022-07-25T10:01:57.362Z,58.50
2022-07-25T10:02:57.356Z,56.82
2022-07-25T10:03:57.309Z,55.53
2022-07-25T10:04:57.304Z,55.63
2022-07-25T10:05:57.297Z,54.94
2022-07-25T10:06:57.290Z,57.39
2022-07-25T10:07:57.294Z,55.83
2022-07-25T10:08:57.331Z,55.73
2022-07-25T10:09:57.296Z,56.23
2022-07-25T10:10:57.261Z,56.30
2022-07-25T10:11:57.275Z,57.12
2022-07-25T10:12:57.253Z,59.59
2022-07-25T10:13:57.243Z,56.15
2022-07-25T10:14:57.265Z,56.15
2022-07-25T10:15:57.236Z,55.76
2022-07-25T10:16:57.251Z,55.43
2022-07-25T10:17:57.217Z,55.73
2022-07-25T10:18:57.242Z,56.65
2022-07-25T10:19:59.033Z,58.63
2022-07-25T10:20:57.231Z,56.15
2022-07-25T10:21:57.191Z,56.15
2022-07-25T10:22:58.102Z,56.74
2022-07-25T10:23:57.230Z,56.72
2022-07-25T10:24:57.182Z,55.43
2022-07-25T10:25:57.167Z,56.13
2022-07-25T10:26:57.161Z,55.93
2022-07-25T10:27:57.159Z,56.35
2022-07-25T10:28:57.153Z,56.35
2022-07-25T10:29:57.181Z,55.66
2022-07-25T10:30:57.181Z,57.04
2022-07-25T10:31:57.132Z,55.26
2022-07-25T10:32:57.133Z,56.05
2022-07-25T10:33:57.127Z,56.55
2022-07-25T10:34:57.116Z,56.45
2022-07-25T10:35:57.109Z,56.65
2022-07-25T10:36:57.123Z,55.66
2022-07-25T10:37:57.116Z,56.55
2022-07-25T10:38:57.091Z,56.35
2022-07-25T10:39:57.092Z,57.14
2022-07-25T10:40:57.135Z,57.84
2022-07-25T10:41:57.070Z,56.15
2022-07-25T10:42:57.065Z,56.85
2022-07-25T10:43:57.061Z,55.46
2022-07-25T10:44:57.058Z,56.42
2022-07-25T10:45:57.109Z,56.62
2022-07-25T10:46:57.043Z,54.91
2022-07-25T10:47:57.056Z,56.30
2022-07-25T10:48:57.128Z,55.97
2022-07-25T10:50:57.272Z,55.45
2022-07-25T10:51:57.013Z,56.04
2022-07-25T10:52:57.042Z,56.07
2022-07-25T10:53:56.998Z,54.86
2022-07-25T10:54:57.023Z,56.24
2022-07-25T10:56:05.808Z,56.93
2022-07-25T10:56:57.020Z,54.46
2022-07-25T10:58:16.533Z,53.47
2022-07-25T10:58:56.982Z,52.88
2022-07-25T10:59:56.970Z,54.76
2022-07-25T11:00:56.999Z,55.75
2022-07-25T11:01:56.961Z,54.53
2022-07-25T11:02:57.022Z,53.42
2022-07-25T11:03:56.971Z,52.80
2022-07-25T11:04:56.946Z,51.72
2022-07-25T11:05:56.939Z,52.91
2022-07-25T11:06:56.939Z,51.82
2022-07-25T11:08:20.479Z,53.10
2022-07-25T11:08:56.951Z,51.50
2022-07-25T11:09:56.915Z,51.69
2022-07-25T11:10:56.927Z,51.10
2022-07-25T11:11:56.913Z,52.09
2022-07-25T11:12:56.907Z,51.77
2022-07-25T11:13:56.904Z,51.87
2022-07-25T11:14:56.896Z,50.59
2022-07-25T11:15:56.891Z,52.16
2022-07-25T11:16:57.002Z,51.45
2022-07-25T11:17:56.880Z,50.95
2022-07-25T11:18:56.911Z,52.33
2022-07-25T11:19:56.867Z,51.15
2022-07-25T11:20:56.869Z,51.45
2022-07-25T11:21:56.865Z,52.46
2022-07-25T11:22:56.857Z,52.98
2022-07-25T11:23:56.878Z,53.08
2022-07-25T11:24:56.853Z,54.82
2022-07-25T11:25:56.843Z,52.75
2022-07-25T11:26:56.839Z,53.13
2022-07-25T11:27:56.851Z,52.33
2022-07-25T11:28:56.831Z,51.25
2022-07-25T11:29:56.854Z,52.53
2022-07-25T11:30:56.823Z,53.13
2022-07-25T11:31:57.019Z,51.87
2022-07-25T11:32:56.834Z,52.56
2022-07-25T11:33:56.841Z,52.66
2022-07-25T11:34:56.806Z,53.52
2022-07-25T11:35:56.825Z,53.44
2022-07-25T11:36:56.809Z,53.34
2022-07-25T11:37:56.794Z,53.17
2022-07-25T11:38:56.807Z,54.58
2022-07-25T11:39:56.815Z,53.30
2022-07-25T11:40:56.818Z,53.50
2022-07-25T11:41:56.793Z,54.41
2022-07-25T11:42:56.787Z,53.42
2022-07-25T11:43:56.767Z,53.13
2022-07-25T11:44:56.797Z,55.33
2022-07-25T11:45:56.833Z,54.93
2022-07-25T11:46:56.758Z,54.90
2022-07-25T11:47:56.780Z,54.93
2022-07-25T11:48:56.802Z,54.83
2022-07-25T11:49:56.798Z,54.44
2022-07-25T11:50:56.754Z,55.03
2022-07-25T11:51:56.738Z,55.82
2022-07-25T11:52:56.730Z,55.33
2022-07-25T11:53:56.789Z,56.71
2022-07-25T11:54:56.720Z,54.96
2022-07-25T11:55:56.719Z,56.93
2022-07-25T11:56:56.715Z,55.85
2022-07-25T11:57:56.736Z,55.15
2022-07-25T11:58:56.700Z,55.65
2022-07-25T11:59:56.694Z,56.34
2022-07-25T12:00:56.761Z,57.03
2022-07-25T12:01:56.718Z,56.04
2022-07-25T12:02:56.757Z,55.26
2022-07-25T12:03:56.675Z,55.45
2022-07-25T12:04:56.670Z,56.34
2022-07-25T12:05:56.662Z,55.68
2022-07-25T12:06:56.703Z,56.44
2022-07-25T12:07:56.660Z,57.23
2022-07-25T12:08:56.673Z,56.84
2022-07-25T12:09:56.643Z,56.34
2022-07-25T12:10:56.640Z,57.13
2022-07-25T12:11:56.633Z,56.41
2022-07-25T12:12:56.639Z,55.30
2022-07-25T12:13:56.953Z,55.07
2022-07-25T12:14:56.615Z,54.68
2022-07-25T12:15:56.614Z,53.08
2022-07-25T12:16:56.701Z,55.05
2022-07-25T12:17:56.602Z,53.44
2022-07-25T12:18:56.635Z,52.75
2022-07-25T12:19:56.608Z,52.98
2022-07-25T12:20:56.946Z,51.59
2022-07-25T12:21:56.594Z,52.66
2022-07-25T12:22:56.576Z,52.95
2022-07-25T12:23:56.569Z,50.98
2022-07-25T12:24:56.566Z,53.02
2022-07-25T12:25:56.576Z,52.33
2022-07-25T12:26:56.610Z,51.54
2022-07-25T12:27:56.548Z,53.61
2022-07-25T12:28:56.543Z,53.13
2022-07-25T12:29:56.541Z,53.02
2022-07-25T12:30:57.015Z,55.09
2022-07-25T12:31:56.527Z,52.31
2022-07-25T12:32:56.558Z,52.83
2022-07-25T12:33:56.520Z,52.04
2022-07-25T12:34:56.518Z,52.53
2022-07-25T12:35:56.508Z,51.54
2022-07-25T12:36:56.528Z,52.36
2022-07-25T12:37:56.515Z,50.46
2022-07-25T12:38:56.516Z,52.36
2022-07-25T12:39:56.495Z,52.23
2022-07-25T12:40:56.491Z,54.01
2022-07-25T12:41:56.477Z,52.90
2022-07-25T12:42:56.714Z,51.12
2022-07-25T12:43:56.472Z,53.30
2022-07-25T12:44:56.463Z,51.00
2022-07-25T12:45:56.512Z,51.50
2022-07-25T12:46:56.449Z,53.39
2022-07-25T12:47:56.449Z,51.32
2022-07-25T12:48:56.540Z,53.47
2022-07-25T12:49:56.461Z,52.21
2022-07-25T12:50:56.452Z,51.42
2022-07-25T12:51:58.324Z,52.73
2022-07-25T12:52:56.426Z,53.61